Overview Statistics Trail Chart Weather Telemetry Raw packets
 

This is the latest recevied weather packets stored in our database for station/object DL4MGC-10. If no packets are shown the sender has not sent any weather packets the latest 10 day(s).

<< 2 3 4 5 6 7 8 >>
Time Temp. Humidity Pressure Rain* Wind** Luminosity Snow
1788614862 26.67° C 52% 1022.4 hPa - - - -
1788613962 26.11° C 54% 1022.4 hPa - - - -
1788613062 26.11° C 60% 1022.5 hPa - - - -
1788612162 26.11° C 59% 1022.5 hPa - - - -
1788611262 26.11° C 61% 1022.5 hPa - - - -
1788610361 25.56° C 60% 1022.5 hPa - - - -
1788609461 25° C 64% 1022.6 hPa - - - -
1788608561 23.33° C 68% 1022.5 hPa - - - -
1788607662 23.89° C 68% 1022.7 hPa - - - -
1788606761 24.44° C 66% 1022.6 hPa - - - -
1788605861 23.89° C 68% 1022.5 hPa - - - -
1788604961 23.33° C 71% 1022.7 hPa - - - -
1788604061 23.33° C 73% 1022.5 hPa - - - -
1788603161 21.67° C 77% 1022.5 hPa - - - -
1788602261 21.67° C 79% 1022.3 hPa - - - -
1788601360 23.89° C 73% 1022.5 hPa - - - -
1788600460 22.22° C 77% 1022.5 hPa - - - -
1788599560 21.11° C 79% 1022.4 hPa - - - -
1788598660 22.22° C 79% 1022.4 hPa - - - -
1788597760 20° C 82% 1022.2 hPa - - - -
1788596860 17.78° C 92% 1022.1 hPa - - - -
1788595960 17.78° C 92% 1022.1 hPa - - - -
1788595060 18.33° C 92% 1021.9 hPa - - - -
1788594160 17.78° C 90% 1021.9 hPa - - - -
1788593259 17.78° C 94% 1021.9 hPa - - - -

* Rain since midnight (hover to see other rain measurements)
** Current wind speed in m/s (hover to see current wind gust speed)